sensor_id;sensor_type;location;lat;lon;timestamp;temperature;humidity
53208;DHT22;39093;52.788;6.940;2023-12-14T00:01:22;5.20;99.90
53208;DHT22;39093;52.788;6.940;2023-12-14T00:03:49;5.20;99.90
53208;DHT22;39093;52.788;6.940;2023-12-14T00:06:16;5.20;99.90
53208;DHT22;39093;52.788;6.940;2023-12-14T00:08:43;5.20;99.90
53208;DHT22;39093;52.788;6.940;2023-12-14T00:11:10;5.30;99.90
53208;DHT22;39093;52.788;6.940;2023-12-14T00:13:38;5.20;99.90
53208;DHT22;39093;52.788;6.940;2023-12-14T00:16:06;5.20;99.90
53208;DHT22;39093;52.788;6.940;2023-12-14T00:18:34;5.20;99.90
53208;DHT22;39093;52.788;6.940;2023-12-14T00:21:00;5.20;99.90
53208;DHT22;39093;52.788;6.940;2023-12-14T00:23:27;5.20;99.90
53208;DHT22;39093;52.788;6.940;2023-12-14T00:25:54;5.20;99.90
53208;DHT22;39093;52.788;6.940;2023-12-14T00:28:21;5.20;99.90
53208;DHT22;39093;52.788;6.940;2023-12-14T00:30:52;5.20;99.90
53208;DHT22;39093;52.788;6.940;2023-12-14T00:33:19;5.20;99.90
53208;DHT22;39093;52.788;6.940;2023-12-14T00:35:46;5.20;99.90
53208;DHT22;39093;52.788;6.940;2023-12-14T00:38:13;5.30;99.90
53208;DHT22;39093;52.788;6.940;2023-12-14T00:40:40;5.10;99.90
53208;DHT22;39093;52.788;6.940;2023-12-14T00:43:07;5.10;99.90
53208;DHT22;39093;52.788;6.940;2023-12-14T00:45:34;5.20;99.90
53208;DHT22;39093;52.788;6.940;2023-12-14T00:48:00;5.10;99.90
53208;DHT22;39093;52.788;6.940;2023-12-14T00:50:27;5.20;99.90
53208;DHT22;39093;52.788;6.940;2023-12-14T00:52:54;5.10;99.90
53208;DHT22;39093;52.788;6.940;2023-12-14T00:55:21;5.10;99.90
53208;DHT22;39093;52.788;6.940;2023-12-14T00:57:48;5.00;99.90
53208;DHT22;39093;52.788;6.940;2023-12-14T01:00:16;5.10;99.90
53208;DHT22;39093;52.788;6.940;2023-12-14T01:02:43;5.10;99.90
53208;DHT22;39093;52.788;6.940;2023-12-14T01:05:10;5.10;99.90
53208;DHT22;39093;52.788;6.940;2023-12-14T01:07:37;5.10;99.90
53208;DHT22;39093;52.788;6.940;2023-12-14T01:10:04;5.10;99.90
53208;DHT22;39093;52.788;6.940;2023-12-14T01:12:31;5.10;99.90
53208;DHT22;39093;52.788;6.940;2023-12-14T01:14:59;5.10;99.90
53208;DHT22;39093;52.788;6.940;2023-12-14T01:17:26;5.00;99.90
53208;DHT22;39093;52.788;6.940;2023-12-14T01:19:53;5.00;99.90
53208;DHT22;39093;52.788;6.940;2023-12-14T01:22:20;5.10;99.90
53208;DHT22;39093;52.788;6.940;2023-12-14T01:24:47;5.00;99.90
53208;DHT22;39093;52.788;6.940;2023-12-14T01:27:14;5.10;99.90
53208;DHT22;39093;52.788;6.940;2023-12-14T01:29:41;5.10;99.90
53208;DHT22;39093;52.788;6.940;2023-12-14T01:32:08;5.10;99.90
53208;DHT22;39093;52.788;6.940;2023-12-14T01:34:35;5.00;99.90
53208;DHT22;39093;52.788;6.940;2023-12-14T01:37:02;5.10;99.90
53208;DHT22;39093;52.788;6.940;2023-12-14T01:39:29;5.00;99.90
53208;DHT22;39093;52.788;6.940;2023-12-14T01:41:56;5.10;99.90
53208;DHT22;39093;52.788;6.940;2023-12-14T01:44:23;5.00;99.90
53208;DHT22;39093;52.788;6.940;2023-12-14T01:46:50;5.00;99.90
53208;DHT22;39093;52.788;6.940;2023-12-14T01:49:17;5.10;99.90
53208;DHT22;39093;52.788;6.940;2023-12-14T01:51:44;5.00;99.90
53208;DHT22;39093;52.788;6.940;2023-12-14T01:54:11;5.00;99.90
53208;DHT22;39093;52.788;6.940;2023-12-14T01:56:38;5.00;99.90
53208;DHT22;39093;52.788;6.940;2023-12-14T01:59:05;5.00;99.90
53208;DHT22;39093;52.788;6.940;2023-12-14T02:01:42;4.90;99.90
53208;DHT22;39093;52.788;6.940;2023-12-14T02:04:11;5.00;99.90
53208;DHT22;39093;52.788;6.940;2023-12-14T02:06:39;5.00;99.90
53208;DHT22;39093;52.788;6.940;2023-12-14T02:09:06;4.90;99.90
53208;DHT22;39093;52.788;6.940;2023-12-14T02:11:33;4.90;99.90
53208;DHT22;39093;52.788;6.940;2023-12-14T02:14:08;4.90;99.90
53208;DHT22;39093;52.788;6.940;2023-12-14T02:16:37;4.90;99.90
53208;DHT22;39093;52.788;6.940;2023-12-14T02:19:07;4.90;99.90
53208;DHT22;39093;52.788;6.940;2023-12-14T02:21:34;4.90;99.90
53208;DHT22;39093;52.788;6.940;2023-12-14T02:24:01;4.80;99.90
53208;DHT22;39093;52.788;6.940;2023-12-14T02:26:28;4.80;99.90
53208;DHT22;39093;52.788;6.940;2023-12-14T02:28:55;4.90;99.90
53208;DHT22;39093;52.788;6.940;2023-12-14T02:31:23;4.80;99.90
53208;DHT22;39093;52.788;6.940;2023-12-14T02:33:49;4.80;99.90
53208;DHT22;39093;52.788;6.940;2023-12-14T02:36:17;4.80;99.90
53208;DHT22;39093;52.788;6.940;2023-12-14T02:38:43;4.80;99.90
53208;DHT22;39093;52.788;6.940;2023-12-14T02:41:11;4.80;99.90
53208;DHT22;39093;52.788;6.940;2023-12-14T02:43:38;4.80;99.90
53208;DHT22;39093;52.788;6.940;2023-12-14T02:46:07;4.80;99.90
53208;DHT22;39093;52.788;6.940;2023-12-14T02:48:34;4.80;99.90
53208;DHT22;39093;52.788;6.940;2023-12-14T02:51:02;4.80;99.90
53208;DHT22;39093;52.788;6.940;2023-12-14T02:53:29;4.80;99.90
53208;DHT22;39093;52.788;6.940;2023-12-14T02:55:56;4.80;99.90
53208;DHT22;39093;52.788;6.940;2023-12-14T02:58:23;4.80;99.90
53208;DHT22;39093;52.788;6.940;2023-12-14T03:00:50;4.90;99.90
53208;DHT22;39093;52.788;6.940;2023-12-14T03:03:17;4.80;99.90
53208;DHT22;39093;52.788;6.940;2023-12-14T03:05:45;4.80;99.90
53208;DHT22;39093;52.788;6.940;2023-12-14T03:08:12;4.70;99.90
53208;DHT22;39093;52.788;6.940;2023-12-14T03:10:42;4.80;99.90
53208;DHT22;39093;52.788;6.940;2023-12-14T03:13:09;4.80;99.90
53208;DHT22;39093;52.788;6.940;2023-12-14T03:15:36;4.80;99.90
53208;DHT22;39093;52.788;6.940;2023-12-14T03:18:03;4.80;99.90
53208;DHT22;39093;52.788;6.940;2023-12-14T03:20:30;4.80;99.90
53208;DHT22;39093;52.788;6.940;2023-12-14T03:22:57;4.80;99.90
53208;DHT22;39093;52.788;6.940;2023-12-14T03:25:24;4.90;99.90
53208;DHT22;39093;52.788;6.940;2023-12-14T03:27:51;4.80;99.90
53208;DHT22;39093;52.788;6.940;2023-12-14T03:30:18;4.90;99.90
53208;DHT22;39093;52.788;6.940;2023-12-14T03:32:44;4.80;99.90
53208;DHT22;39093;52.788;6.940;2023-12-14T03:35:11;4.80;99.90
53208;DHT22;39093;52.788;6.940;2023-12-14T03:37:39;4.80;99.90
53208;DHT22;39093;52.788;6.940;2023-12-14T03:40:06;4.80;99.90
53208;DHT22;39093;52.788;6.940;2023-12-14T03:42:33;4.80;99.90
53208;DHT22;39093;52.788;6.940;2023-12-14T03:45:00;4.80;99.90
53208;DHT22;39093;52.788;6.940;2023-12-14T03:47:27;4.80;99.90
53208;DHT22;39093;52.788;6.940;2023-12-14T03:49:54;4.80;99.90
53208;DHT22;39093;52.788;6.940;2023-12-14T03:52:21;4.80;99.90
53208;DHT22;39093;52.788;6.940;2023-12-14T03:54:48;4.80;99.90
53208;DHT22;39093;52.788;6.940;2023-12-14T03:57:15;4.80;99.90
53208;DHT22;39093;52.788;6.940;2023-12-14T03:59:42;4.80;99.90
53208;DHT22;39093;52.788;6.940;2023-12-14T04:02:09;4.80;99.90
53208;DHT22;39093;52.788;6.940;2023-12-14T04:04:36;4.80;99.90
53208;DHT22;39093;52.788;6.940;2023-12-14T04:07:03;4.80;99.90
53208;DHT22;39093;52.788;6.940;2023-12-14T04:09:30;4.80;99.90
53208;DHT22;39093;52.788;6.940;2023-12-14T04:11:57;4.80;99.90
53208;DHT22;39093;52.788;6.940;2023-12-14T04:14:24;4.80;99.90
53208;DHT22;39093;52.788;6.940;2023-12-14T04:16:51;4.80;99.90
53208;DHT22;39093;52.788;6.940;2023-12-14T04:19:18;4.80;99.90
53208;DHT22;39093;52.788;6.940;2023-12-14T04:21:45;4.80;99.90
53208;DHT22;39093;52.788;6.940;2023-12-14T04:24:12;4.80;99.90
53208;DHT22;39093;52.788;6.940;2023-12-14T04:26:39;4.80;99.90
53208;DHT22;39093;52.788;6.940;2023-12-14T04:29:06;4.80;99.90
53208;DHT22;39093;52.788;6.940;2023-12-14T04:31:34;4.80;99.90
53208;DHT22;39093;52.788;6.940;2023-12-14T04:34:02;4.80;99.90
53208;DHT22;39093;52.788;6.940;2023-12-14T04:36:29;4.90;99.90
53208;DHT22;39093;52.788;6.940;2023-12-14T04:38:56;4.80;99.90
53208;DHT22;39093;52.788;6.940;2023-12-14T04:41:23;4.80;99.90
53208;DHT22;39093;52.788;6.940;2023-12-14T04:43:50;4.80;99.90
53208;DHT22;39093;52.788;6.940;2023-12-14T04:46:17;4.80;99.90
53208;DHT22;39093;52.788;6.940;2023-12-14T04:48:44;4.80;99.90
53208;DHT22;39093;52.788;6.940;2023-12-14T04:51:11;4.70;99.90
53208;DHT22;39093;52.788;6.940;2023-12-14T04:53:39;4.70;99.90
53208;DHT22;39093;52.788;6.940;2023-12-14T04:56:10;4.50;99.90
53208;DHT22;39093;52.788;6.940;2023-12-14T04:58:39;4.70;99.90
53208;DHT22;39093;52.788;6.940;2023-12-14T05:01:07;4.70;99.90
53208;DHT22;39093;52.788;6.940;2023-12-14T05:03:35;4.70;99.90
53208;DHT22;39093;52.788;6.940;2023-12-14T05:06:02;4.70;99.90
53208;DHT22;39093;52.788;6.940;2023-12-14T05:08:29;4.70;99.90
53208;DHT22;39093;52.788;6.940;2023-12-14T05:10:56;4.70;99.90
53208;DHT22;39093;52.788;6.940;2023-12-14T05:13:23;4.60;99.90
53208;DHT22;39093;52.788;6.940;2023-12-14T05:15:51;4.80;99.90
53208;DHT22;39093;52.788;6.940;2023-12-14T05:18:18;4.70;99.90
53208;DHT22;39093;52.788;6.940;2023-12-14T05:20:46;4.70;99.90
53208;DHT22;39093;52.788;6.940;2023-12-14T05:23:13;4.70;99.90
53208;DHT22;39093;52.788;6.940;2023-12-14T05:25:40;4.60;99.90
53208;DHT22;39093;52.788;6.940;2023-12-14T05:28:07;4.80;99.90
53208;DHT22;39093;52.788;6.940;2023-12-14T05:30:34;4.70;99.90
53208;DHT22;39093;52.788;6.940;2023-12-14T05:33:01;4.70;99.90
53208;DHT22;39093;52.788;6.940;2023-12-14T05:35:28;4.60;99.90
53208;DHT22;39093;52.788;6.940;2023-12-14T05:37:55;4.60;99.90
53208;DHT22;39093;52.788;6.940;2023-12-14T05:40:22;4.70;99.90
53208;DHT22;39093;52.788;6.940;2023-12-14T05:42:49;4.70;99.90
53208;DHT22;39093;52.788;6.940;2023-12-14T05:45:16;4.70;99.90
53208;DHT22;39093;52.788;6.940;2023-12-14T05:47:45;4.70;99.90
53208;DHT22;39093;52.788;6.940;2023-12-14T05:50:12;4.70;99.90
53208;DHT22;39093;52.788;6.940;2023-12-14T05:52:39;4.70;99.90
53208;DHT22;39093;52.788;6.940;2023-12-14T05:55:09;4.70;99.90
53208;DHT22;39093;52.788;6.940;2023-12-14T05:57:39;4.70;99.90
53208;DHT22;39093;52.788;6.940;2023-12-14T06:00:06;4.70;99.90
53208;DHT22;39093;52.788;6.940;2023-12-14T06:02:34;4.70;99.90
53208;DHT22;39093;52.788;6.940;2023-12-14T06:05:03;4.80;99.90
53208;DHT22;39093;52.788;6.940;2023-12-14T06:07:31;4.70;99.90
53208;DHT22;39093;52.788;6.940;2023-12-14T06:09:58;4.70;99.90
53208;DHT22;39093;52.788;6.940;2023-12-14T06:12:25;4.70;99.90
53208;DHT22;39093;52.788;6.940;2023-12-14T06:14:52;4.70;99.90
53208;DHT22;39093;52.788;6.940;2023-12-14T06:17:18;4.70;99.90
53208;DHT22;39093;52.788;6.940;2023-12-14T06:19:45;4.60;99.90
53208;DHT22;39093;52.788;6.940;2023-12-14T06:22:12;4.60;99.90
53208;DHT22;39093;52.788;6.940;2023-12-14T06:24:39;4.60;99.90
53208;DHT22;39093;52.788;6.940;2023-12-14T06:27:07;4.60;99.90
53208;DHT22;39093;52.788;6.940;2023-12-14T06:29:34;4.60;99.90
53208;DHT22;39093;52.788;6.940;2023-12-14T06:32:01;4.60;99.90
53208;DHT22;39093;52.788;6.940;2023-12-14T06:34:28;4.70;99.90
53208;DHT22;39093;52.788;6.940;2023-12-14T06:36:55;4.70;99.90
53208;DHT22;39093;52.788;6.940;2023-12-14T06:39:22;4.60;99.90
53208;DHT22;39093;52.788;6.940;2023-12-14T06:41:52;4.60;99.90
53208;DHT22;39093;52.788;6.940;2023-12-14T06:44:19;4.60;99.90
53208;DHT22;39093;52.788;6.940;2023-12-14T06:46:46;4.60;99.90
53208;DHT22;39093;52.788;6.940;2023-12-14T06:49:13;4.60;99.90
53208;DHT22;39093;52.788;6.940;2023-12-14T06:51:40;4.60;99.90
53208;DHT22;39093;52.788;6.940;2023-12-14T06:54:07;4.70;99.90
53208;DHT22;39093;52.788;6.940;2023-12-14T06:56:36;4.70;99.90
53208;DHT22;39093;52.788;6.940;2023-12-14T06:59:03;4.60;99.90
53208;DHT22;39093;52.788;6.940;2023-12-14T07:01:30;4.60;99.90
53208;DHT22;39093;52.788;6.940;2023-12-14T07:03:57;4.30;99.90
53208;DHT22;39093;52.788;6.940;2023-12-14T07:06:24;4.70;99.90
53208;DHT22;39093;52.788;6.940;2023-12-14T07:08:51;4.80;99.90
53208;DHT22;39093;52.788;6.940;2023-12-14T07:11:18;4.60;99.90
53208;DHT22;39093;52.788;6.940;2023-12-14T07:13:48;4.60;99.90
53208;DHT22;39093;52.788;6.940;2023-12-14T07:16:15;4.60;99.90
53208;DHT22;39093;52.788;6.940;2023-12-14T07:18:44;4.80;99.90
53208;DHT22;39093;52.788;6.940;2023-12-14T07:21:11;4.60;99.90
53208;DHT22;39093;52.788;6.940;2023-12-14T07:23:38;4.60;99.90
53208;DHT22;39093;52.788;6.940;2023-12-14T07:26:05;4.70;99.90
53208;DHT22;39093;52.788;6.940;2023-12-14T07:28:34;4.60;99.90
53208;DHT22;39093;52.788;6.940;2023-12-14T07:31:01;4.60;99.90
53208;DHT22;39093;52.788;6.940;2023-12-14T07:33:28;4.60;99.90
53208;DHT22;39093;52.788;6.940;2023-12-14T07:35:55;4.60;99.90
53208;DHT22;39093;52.788;6.940;2023-12-14T07:38:22;4.70;99.90
53208;DHT22;39093;52.788;6.940;2023-12-14T07:40:49;4.60;99.90
53208;DHT22;39093;52.788;6.940;2023-12-14T07:43:17;4.60;99.90
53208;DHT22;39093;52.788;6.940;2023-12-14T07:45:44;4.60;99.90
53208;DHT22;39093;52.788;6.940;2023-12-14T07:48:12;4.60;99.90
53208;DHT22;39093;52.788;6.940;2023-12-14T07:50:40;4.60;99.90
53208;DHT22;39093;52.788;6.940;2023-12-14T07:53:06;4.60;99.90
53208;DHT22;39093;52.788;6.940;2023-12-14T07:55:33;4.70;99.90
53208;DHT22;39093;52.788;6.940;2023-12-14T07:58:01;4.60;99.90
53208;DHT22;39093;52.788;6.940;2023-12-14T08:00:27;4.60;99.90
53208;DHT22;39093;52.788;6.940;2023-12-14T08:02:54;4.60;99.90
53208;DHT22;39093;52.788;6.940;2023-12-14T08:05:22;4.60;99.90
53208;DHT22;39093;52.788;6.940;2023-12-14T08:07:49;4.60;99.90
53208;DHT22;39093;52.788;6.940;2023-12-14T08:10:19;4.70;99.90
53208;DHT22;39093;52.788;6.940;2023-12-14T08:12:46;4.60;99.90
53208;DHT22;39093;52.788;6.940;2023-12-14T08:15:14;4.60;99.90
53208;DHT22;39093;52.788;6.940;2023-12-14T08:17:41;4.60;99.90
53208;DHT22;39093;52.788;6.940;2023-12-14T08:20:09;4.60;99.90
53208;DHT22;39093;52.788;6.940;2023-12-14T08:22:38;4.60;99.90
53208;DHT22;39093;52.788;6.940;2023-12-14T08:25:12;4.60;99.90
53208;DHT22;39093;52.788;6.940;2023-12-14T08:27:40;4.70;99.90
53208;DHT22;39093;52.788;6.940;2023-12-14T08:30:08;4.70;99.90
53208;DHT22;39093;52.788;6.940;2023-12-14T08:32:35;4.70;99.90
53208;DHT22;39093;52.788;6.940;2023-12-14T08:35:03;4.70;99.90
53208;DHT22;39093;52.788;6.940;2023-12-14T08:37:31;4.60;99.90
53208;DHT22;39093;52.788;6.940;2023-12-14T08:39:58;4.70;99.90
53208;DHT22;39093;52.788;6.940;2023-12-14T08:42:25;4.70;99.90
53208;DHT22;39093;52.788;6.940;2023-12-14T08:44:52;4.70;99.90
53208;DHT22;39093;52.788;6.940;2023-12-14T08:47:19;4.70;99.90
53208;DHT22;39093;52.788;6.940;2023-12-14T08:49:46;4.70;99.90
53208;DHT22;39093;52.788;6.940;2023-12-14T08:52:14;4.70;99.90
53208;DHT22;39093;52.788;6.940;2023-12-14T08:54:41;4.70;99.90
53208;DHT22;39093;52.788;6.940;2023-12-14T08:57:11;4.70;99.90
53208;DHT22;39093;52.788;6.940;2023-12-14T08:59:38;4.70;99.90
53208;DHT22;39093;52.788;6.940;2023-12-14T09:02:09;4.70;99.90
53208;DHT22;39093;52.788;6.940;2023-12-14T09:04:36;4.70;99.90
53208;DHT22;39093;52.788;6.940;2023-12-14T09:07:03;4.70;99.90
53208;DHT22;39093;52.788;6.940;2023-12-14T09:09:30;4.70;99.90
53208;DHT22;39093;52.788;6.940;2023-12-14T09:11:59;4.70;99.90
53208;DHT22;39093;52.788;6.940;2023-12-14T09:14:26;4.70;99.90
53208;DHT22;39093;52.788;6.940;2023-12-14T09:16:53;4.70;99.90
53208;DHT22;39093;52.788;6.940;2023-12-14T09:19:20;4.70;99.90
53208;DHT22;39093;52.788;6.940;2023-12-14T09:21:47;4.80;99.90
53208;DHT22;39093;52.788;6.940;2023-12-14T09:24:15;4.80;99.90
53208;DHT22;39093;52.788;6.940;2023-12-14T09:26:42;4.80;99.90
53208;DHT22;39093;52.788;6.940;2023-12-14T09:29:09;4.80;99.90
53208;DHT22;39093;52.788;6.940;2023-12-14T09:31:36;4.80;99.90
53208;DHT22;39093;52.788;6.940;2023-12-14T09:34:03;4.80;99.90
53208;DHT22;39093;52.788;6.940;2023-12-14T09:36:31;4.90;99.90
53208;DHT22;39093;52.788;6.940;2023-12-14T09:38:58;4.80;99.90
53208;DHT22;39093;52.788;6.940;2023-12-14T09:41:25;4.80;99.90
53208;DHT22;39093;52.788;6.940;2023-12-14T09:43:52;4.80;99.90
53208;DHT22;39093;52.788;6.940;2023-12-14T09:46:21;4.80;99.90
53208;DHT22;39093;52.788;6.940;2023-12-14T09:48:50;4.80;99.90
53208;DHT22;39093;52.788;6.940;2023-12-14T09:51:20;4.90;99.90
53208;DHT22;39093;52.788;6.940;2023-12-14T09:53:47;4.90;99.90
53208;DHT22;39093;52.788;6.940;2023-12-14T09:56:14;4.90;99.90
53208;DHT22;39093;52.788;6.940;2023-12-14T09:58:41;4.90;99.90
53208;DHT22;39093;52.788;6.940;2023-12-14T10:01:27;5.00;99.90
53208;DHT22;39093;52.788;6.940;2023-12-14T10:04:15;4.90;99.90
53208;DHT22;39093;52.788;6.940;2023-12-14T10:06:45;4.90;99.90
53208;DHT22;39093;52.788;6.940;2023-12-14T10:09:12;5.00;99.90
53208;DHT22;39093;52.788;6.940;2023-12-14T10:11:45;5.00;99.90
53208;DHT22;39093;52.788;6.940;2023-12-14T10:16:48;5.10;99.90
53208;DHT22;39093;52.788;6.940;2023-12-14T10:19:19;5.00;99.90
53208;DHT22;39093;52.788;6.940;2023-12-14T10:21:47;5.00;99.90
53208;DHT22;39093;52.788;6.940;2023-12-14T10:24:15;5.00;99.90
53208;DHT22;39093;52.788;6.940;2023-12-14T10:26:47;5.00;99.90
53208;DHT22;39093;52.788;6.940;2023-12-14T10:29:14;5.00;99.90
53208;DHT22;39093;52.788;6.940;2023-12-14T10:31:43;5.00;99.90
53208;DHT22;39093;52.788;6.940;2023-12-14T10:34:10;5.00;99.90
53208;DHT22;39093;52.788;6.940;2023-12-14T10:36:40;5.00;99.90
53208;DHT22;39093;52.788;6.940;2023-12-14T10:39:11;5.00;99.90
53208;DHT22;39093;52.788;6.940;2023-12-14T10:41:40;5.00;99.90
53208;DHT22;39093;52.788;6.940;2023-12-14T10:44:08;5.10;99.90
53208;DHT22;39093;52.788;6.940;2023-12-14T10:46:58;5.10;99.90
53208;DHT22;39093;52.788;6.940;2023-12-14T10:49:25;5.10;99.90
53208;DHT22;39093;52.788;6.940;2023-12-14T10:51:54;5.10;99.90
53208;DHT22;39093;52.788;6.940;2023-12-14T10:54:24;5.20;99.90
53208;DHT22;39093;52.788;6.940;2023-12-14T10:56:55;5.20;99.90
53208;DHT22;39093;52.788;6.940;2023-12-14T10:59:26;5.20;99.90
53208;DHT22;39093;52.788;6.940;2023-12-14T11:01:53;5.40;99.90
53208;DHT22;39093;52.788;6.940;2023-12-14T11:04:26;5.20;99.90
53208;DHT22;39093;52.788;6.940;2023-12-14T11:06:54;5.20;99.90
53208;DHT22;39093;52.788;6.940;2023-12-14T11:09:23;5.30;99.90
53208;DHT22;39093;52.788;6.940;2023-12-14T11:14:24;5.20;99.90
53208;DHT22;39093;52.788;6.940;2023-12-14T11:17:05;5.20;99.90
53208;DHT22;39093;52.788;6.940;2023-12-14T11:19:33;5.30;99.90
53208;DHT22;39093;52.788;6.940;2023-12-14T11:22:10;5.30;99.90
53208;DHT22;39093;52.788;6.940;2023-12-14T11:24:42;5.30;99.90
53208;DHT22;39093;52.788;6.940;2023-12-14T11:27:20;5.30;99.90
53208;DHT22;39093;52.788;6.940;2023-12-14T11:29:48;5.30;99.90
53208;DHT22;39093;52.788;6.940;2023-12-14T11:32:16;5.40;99.90
53208;DHT22;39093;52.788;6.940;2023-12-14T11:34:46;5.50;99.90
53208;DHT22;39093;52.788;6.940;2023-12-14T11:37:13;5.40;99.90
53208;DHT22;39093;52.788;6.940;2023-12-14T11:39:40;5.40;99.90
53208;DHT22;39093;52.788;6.940;2023-12-14T11:42:07;5.40;99.90
53208;DHT22;39093;52.788;6.940;2023-12-14T11:44:37;5.40;99.90
53208;DHT22;39093;52.788;6.940;2023-12-14T11:47:05;5.40;99.90
53208;DHT22;39093;52.788;6.940;2023-12-14T11:49:32;5.40;99.90
53208;DHT22;39093;52.788;6.940;2023-12-14T11:52:02;5.40;99.90
53208;DHT22;39093;52.788;6.940;2023-12-14T11:54:31;5.40;99.90
53208;DHT22;39093;52.788;6.940;2023-12-14T11:57:01;5.40;99.90
53208;DHT22;39093;52.788;6.940;2023-12-14T11:59:31;5.40;99.90
53208;DHT22;39093;52.788;6.940;2023-12-14T12:02:00;5.40;99.90
53208;DHT22;39093;52.788;6.940;2023-12-14T12:04:27;5.40;99.90
53208;DHT22;39093;52.788;6.940;2023-12-14T12:07:05;5.40;99.90
53208;DHT22;39093;52.788;6.940;2023-12-14T12:09:41;5.40;99.90
53208;DHT22;39093;52.788;6.940;2023-12-14T12:12:10;5.40;99.90
53208;DHT22;39093;52.788;6.940;2023-12-14T12:14:39;5.40;99.90
53208;DHT22;39093;52.788;6.940;2023-12-14T12:17:06;5.50;99.90
53208;DHT22;39093;52.788;6.940;2023-12-14T12:19:35;5.50;99.90
53208;DHT22;39093;52.788;6.940;2023-12-14T12:22:03;5.50;99.90
53208;DHT22;39093;52.788;6.940;2023-12-14T12:24:30;5.60;99.90
53208;DHT22;39093;52.788;6.940;2023-12-14T12:27:00;5.60;99.90
53208;DHT22;39093;52.788;6.940;2023-12-14T12:29:27;5.50;99.90
53208;DHT22;39093;52.788;6.940;2023-12-14T12:31:55;5.50;99.90
53208;DHT22;39093;52.788;6.940;2023-12-14T12:34:22;5.50;99.90
53208;DHT22;39093;52.788;6.940;2023-12-14T12:36:49;5.50;99.90
53208;DHT22;39093;52.788;6.940;2023-12-14T12:39:16;5.50;99.90
53208;DHT22;39093;52.788;6.940;2023-12-14T12:41:43;5.50;99.90
53208;DHT22;39093;52.788;6.940;2023-12-14T12:44:10;5.60;99.90
53208;DHT22;39093;52.788;6.940;2023-12-14T12:46:38;5.50;99.90
53208;DHT22;39093;52.788;6.940;2023-12-14T12:49:05;5.50;99.90
53208;DHT22;39093;52.788;6.940;2023-12-14T12:51:32;5.50;99.90
53208;DHT22;39093;52.788;6.940;2023-12-14T12:54:00;5.50;99.90
53208;DHT22;39093;52.788;6.940;2023-12-14T12:56:38;5.50;99.90
53208;DHT22;39093;52.788;6.940;2023-12-14T12:59:06;5.50;99.90
53208;DHT22;39093;52.788;6.940;2023-12-14T13:01:36;5.30;99.90
53208;DHT22;39093;52.788;6.940;2023-12-14T13:04:03;5.50;99.90
53208;DHT22;39093;52.788;6.940;2023-12-14T13:06:31;5.60;99.90
53208;DHT22;39093;52.788;6.940;2023-12-14T13:08:58;5.50;99.90
53208;DHT22;39093;52.788;6.940;2023-12-14T13:11:25;5.50;99.90
53208;DHT22;39093;52.788;6.940;2023-12-14T13:13:52;5.50;99.90
53208;DHT22;39093;52.788;6.940;2023-12-14T13:16:19;5.60;99.90
53208;DHT22;39093;52.788;6.940;2023-12-14T13:18:46;5.50;99.90
53208;DHT22;39093;52.788;6.940;2023-12-14T13:21:13;5.50;99.90
53208;DHT22;39093;52.788;6.940;2023-12-14T13:23:40;5.50;99.90
53208;DHT22;39093;52.788;6.940;2023-12-14T13:26:08;5.60;99.90
53208;DHT22;39093;52.788;6.940;2023-12-14T13:28:35;5.50;99.90
53208;DHT22;39093;52.788;6.940;2023-12-14T13:31:02;5.60;99.90
53208;DHT22;39093;52.788;6.940;2023-12-14T13:33:30;5.50;99.90
53208;DHT22;39093;52.788;6.940;2023-12-14T13:35:57;5.50;99.90
53208;DHT22;39093;52.788;6.940;2023-12-14T13:38:24;5.50;99.90
53208;DHT22;39093;52.788;6.940;2023-12-14T13:40:51;5.50;99.90
53208;DHT22;39093;52.788;6.940;2023-12-14T13:43:19;5.50;99.90
53208;DHT22;39093;52.788;6.940;2023-12-14T13:45:45;5.60;99.90
53208;DHT22;39093;52.788;6.940;2023-12-14T13:48:24;5.60;99.90
53208;DHT22;39093;52.788;6.940;2023-12-14T13:50:52;5.60;99.90
53208;DHT22;39093;52.788;6.940;2023-12-14T13:53:19;5.60;99.90
53208;DHT22;39093;52.788;6.940;2023-12-14T13:55:50;5.60;99.90
53208;DHT22;39093;52.788;6.940;2023-12-14T13:58:17;5.60;99.90
53208;DHT22;39093;52.788;6.940;2023-12-14T14:00:44;5.60;99.90
53208;DHT22;39093;52.788;6.940;2023-12-14T14:03:11;5.60;99.90
53208;DHT22;39093;52.788;6.940;2023-12-14T14:05:38;5.60;99.90
53208;DHT22;39093;52.788;6.940;2023-12-14T14:08:05;5.60;99.90
53208;DHT22;39093;52.788;6.940;2023-12-14T14:10:37;5.60;99.90
53208;DHT22;39093;52.788;6.940;2023-12-14T14:13:04;5.50;99.90
53208;DHT22;39093;52.788;6.940;2023-12-14T14:15:31;5.50;99.90
53208;DHT22;39093;52.788;6.940;2023-12-14T14:17:58;5.40;99.90
53208;DHT22;39093;52.788;6.940;2023-12-14T14:20:25;5.40;99.90
53208;DHT22;39093;52.788;6.940;2023-12-14T14:22:52;5.40;99.90
53208;DHT22;39093;52.788;6.940;2023-12-14T14:25:19;5.50;99.90
53208;DHT22;39093;52.788;6.940;2023-12-14T14:27:46;5.40;99.90
53208;DHT22;39093;52.788;6.940;2023-12-14T14:30:14;5.40;99.90
53208;DHT22;39093;52.788;6.940;2023-12-14T14:32:41;5.40;99.90
53208;DHT22;39093;52.788;6.940;2023-12-14T14:35:08;5.30;99.90
53208;DHT22;39093;52.788;6.940;2023-12-14T14:37:35;5.30;99.90
53208;DHT22;39093;52.788;6.940;2023-12-14T14:40:03;5.30;99.90
53208;DHT22;39093;52.788;6.940;2023-12-14T14:42:30;5.20;99.90
53208;DHT22;39093;52.788;6.940;2023-12-14T14:44:59;5.20;99.90
53208;DHT22;39093;52.788;6.940;2023-12-14T14:47:26;5.20;99.90
53208;DHT22;39093;52.788;6.940;2023-12-14T14:49:54;5.20;99.90
53208;DHT22;39093;52.788;6.940;2023-12-14T14:52:27;5.20;99.90
53208;DHT22;39093;52.788;6.940;2023-12-14T14:54:54;5.20;99.90
53208;DHT22;39093;52.788;6.940;2023-12-14T14:57:21;5.10;99.90
53208;DHT22;39093;52.788;6.940;2023-12-14T14:59:47;5.10;99.90
53208;DHT22;39093;52.788;6.940;2023-12-14T15:02:14;5.10;99.90
53208;DHT22;39093;52.788;6.940;2023-12-14T15:04:41;5.10;99.90
53208;DHT22;39093;52.788;6.940;2023-12-14T15:07:08;5.10;99.90
53208;DHT22;39093;52.788;6.940;2023-12-14T15:09:35;5.10;99.90
53208;DHT22;39093;52.788;6.940;2023-12-14T15:12:02;5.00;99.90
53208;DHT22;39093;52.788;6.940;2023-12-14T15:14:29;5.00;99.90
53208;DHT22;39093;52.788;6.940;2023-12-14T15:16:57;5.00;99.90
53208;DHT22;39093;52.788;6.940;2023-12-14T15:19:24;5.00;99.90
53208;DHT22;39093;52.788;6.940;2023-12-14T15:21:51;5.00;99.90
53208;DHT22;39093;52.788;6.940;2023-12-14T15:24:18;5.00;99.90
53208;DHT22;39093;52.788;6.940;2023-12-14T15:26:45;5.00;99.90
53208;DHT22;39093;52.788;6.940;2023-12-14T15:29:12;4.90;99.90
53208;DHT22;39093;52.788;6.940;2023-12-14T15:31:40;4.90;99.90
53208;DHT22;39093;52.788;6.940;2023-12-14T15:34:07;4.80;99.90
53208;DHT22;39093;52.788;6.940;2023-12-14T15:36:34;4.80;99.90
53208;DHT22;39093;52.788;6.940;2023-12-14T15:39:01;5.00;99.90
53208;DHT22;39093;52.788;6.940;2023-12-14T15:41:30;4.70;99.90
53208;DHT22;39093;52.788;6.940;2023-12-14T15:43:57;4.80;99.90
53208;DHT22;39093;52.788;6.940;2023-12-14T15:46:24;4.60;99.90
53208;DHT22;39093;52.788;6.940;2023-12-14T15:48:51;4.60;99.90
53208;DHT22;39093;52.788;6.940;2023-12-14T15:51:18;4.60;99.90
53208;DHT22;39093;52.788;6.940;2023-12-14T15:53:45;4.60;99.90